createdAt,value
2019-04-14T00:00:49.735Z,67.10
2019-04-14T00:01:47.668Z,66.60
2019-04-14T00:02:57.636Z,64.50
2019-04-14T00:04:00.826Z,63.70
2019-04-14T00:05:08.172Z,65.10
2019-04-14T00:06:07.078Z,67.60
2019-04-14T00:06:48.378Z,69.40
2019-04-14T00:07:29.830Z,70.40
2019-04-14T00:08:11.057Z,71.10
2019-04-14T00:08:52.245Z,71.60
2019-04-14T00:09:33.681Z,72.20
2019-04-14T00:10:16.652Z,72.70
2019-04-14T00:10:59.474Z,70.20
2019-04-14T00:11:43.621Z,68.80
2019-04-14T00:12:25.114Z,67.50
2019-04-14T00:13:06.760Z,66.00
2019-04-14T00:13:50.133Z,65.10
2019-04-14T00:14:32.184Z,64.30
2019-04-14T00:15:24.681Z,63.90
2019-04-14T00:15:58.747Z,64.60
2019-04-14T00:16:42.386Z,66.10
2019-04-14T00:17:23.805Z,68.20
2019-04-14T00:18:05.361Z,69.30
2019-04-14T00:18:48.972Z,70.10
2019-04-14T00:19:30.830Z,70.50
2019-04-14T00:20:12.085Z,71.60
2019-04-14T00:20:53.978Z,72.00
2019-04-14T00:21:34.614Z,72.60
2019-04-14T00:22:16.181Z,73.10
2019-04-14T00:22:57.596Z,70.80
2019-04-14T00:23:39.040Z,69.40
2019-04-14T00:24:23.483Z,67.80
2019-04-14T00:25:04.366Z,66.70
2019-04-14T00:25:45.481Z,65.60
2019-04-14T00:26:46.717Z,64.70
2019-04-14T00:27:28.135Z,64.50
2019-04-14T00:28:09.510Z,66.00
2019-04-14T00:28:53.383Z,67.90
2019-04-14T00:29:35.030Z,69.70
2019-04-14T00:30:18.777Z,70.50
2019-04-14T00:31:00.191Z,71.50
2019-04-14T00:31:41.260Z,72.00
2019-04-14T00:32:22.596Z,72.50
2019-04-14T00:33:06.189Z,73.10
2019-04-14T00:33:52.602Z,73.50
2019-04-14T00:34:54.907Z,72.70
2019-04-14T00:35:52.081Z,70.30
2019-04-14T00:36:48.659Z,68.10
2019-04-14T00:37:37.965Z,66.60
2019-04-14T00:38:43.439Z,65.40
2019-04-14T00:39:36.384Z,64.60
2019-04-14T00:40:26.988Z,65.50
2019-04-14T00:41:17.982Z,67.80
2019-04-14T00:42:05.344Z,70.20
2019-04-14T00:43:09.697Z,71.20
2019-04-14T00:44:01.335Z,72.00
2019-04-14T00:44:49.492Z,72.90
2019-04-14T00:45:42.582Z,73.70
2019-04-14T00:46:35.281Z,74.20
2019-04-14T00:47:22.165Z,71.50
2019-04-14T00:48:14.122Z,69.40
2019-04-14T00:48:51.788Z,68.00
2019-04-14T00:49:33.213Z,67.00
2019-04-14T00:50:14.693Z,66.30
2019-04-14T00:50:56.011Z,65.50
2019-04-14T00:51:38.348Z,64.80
2019-04-14T00:52:19.529Z,64.80
2019-04-14T00:53:05.435Z,65.50
2019-04-14T00:53:47.555Z,67.60
2019-04-14T00:54:30.423Z,69.70
2019-04-14T00:55:14.327Z,70.60
2019-04-14T00:55:57.606Z,71.20
2019-04-14T00:56:43.261Z,72.40
2019-04-14T00:57:24.733Z,73.10
2019-04-14T00:58:05.983Z,73.80
2019-04-14T00:58:47.530Z,74.70
2019-04-14T00:59:29.023Z,73.00
2019-04-14T01:00:10.383Z,71.30
2019-04-14T01:00:53.692Z,69.50
2019-04-14T01:01:35.068Z,68.30
2019-04-14T01:02:16.687Z,67.10
2019-04-14T01:02:57.954Z,66.10
2019-04-14T01:03:41.503Z,65.30
2019-04-14T01:04:25.067Z,64.60
2019-04-14T01:05:06.617Z,65.40
2019-04-14T01:05:48.191Z,66.80
2019-04-14T01:06:29.416Z,69.00
2019-04-14T01:07:10.779Z,70.30
2019-04-14T01:07:52.725Z,71.10
2019-04-14T01:08:35.945Z,71.60
2019-04-14T01:09:17.253Z,72.80
2019-04-14T01:09:58.213Z,73.40
2019-04-14T01:10:41.182Z,73.90
2019-04-14T01:11:22.440Z,74.50
2019-04-14T01:12:03.890Z,72.30
2019-04-14T01:12:45.911Z,70.70
2019-04-14T01:13:28.810Z,70.10
2019-04-14T01:14:11.013Z,68.00
2019-04-14T01:14:54.463Z,66.90
2019-04-14T01:15:44.831Z,66.00
2019-04-14T01:16:20.281Z,65.10
2019-04-14T01:17:00.387Z,64.30
2019-04-14T01:17:45.980Z,63.70
2019-04-14T01:18:30.397Z,63.10
2019-04-14T01:19:11.327Z,62.20
2019-04-14T01:19:54.797Z,61.80
2019-04-14T01:20:40.590Z,61.70
2019-04-14T01:21:24.142Z,63.40
2019-04-14T01:22:10.525Z,64.40
2019-04-14T01:22:55.288Z,66.80
2019-04-14T01:23:36.933Z,67.90
2019-04-14T01:24:18.473Z,69.10
2019-04-14T01:24:59.988Z,70.10
2019-04-14T01:25:41.012Z,70.90
2019-04-14T01:26:22.517Z,71.60
2019-04-14T01:27:03.958Z,72.30
2019-04-14T01:27:47.326Z,71.50
2019-04-14T01:28:28.703Z,69.80
2019-04-14T01:29:10.539Z,67.80
2019-04-14T01:29:54.265Z,66.70
2019-04-14T01:30:39.363Z,65.70
2019-04-14T01:31:21.150Z,64.90
2019-04-14T01:32:02.344Z,64.10
2019-04-14T01:32:45.738Z,63.30
2019-04-14T01:33:29.305Z,62.60
2019-04-14T01:34:13.123Z,62.20
2019-04-14T01:34:54.476Z,61.40
2019-04-14T01:35:37.905Z,61.00
2019-04-14T01:36:21.220Z,60.30
2019-04-14T01:37:02.874Z,59.90
2019-04-14T01:37:50.660Z,59.50
2019-04-14T01:38:31.929Z,59.10
2019-04-14T01:39:13.308Z,58.70
2019-04-14T01:39:54.595Z,58.40
2019-04-14T01:40:38.051Z,58.00
2019-04-14T01:41:19.376Z,57.60
2019-04-14T01:42:02.737Z,57.50
2019-04-14T01:42:44.205Z,57.90
2019-04-14T01:43:25.641Z,59.10
2019-04-14T01:44:06.840Z,60.90
2019-04-14T01:44:48.141Z,62.80
2019-04-14T01:45:31.886Z,63.80
2019-04-14T01:46:18.419Z,64.70
2019-04-14T01:46:54.900Z,65.50
2019-04-14T01:47:35.686Z,66.60
2019-04-14T01:48:17.092Z,66.90
2019-04-14T01:48:58.598Z,67.90
2019-04-14T01:49:39.743Z,66.70
2019-04-14T01:50:23.448Z,65.30
2019-04-14T01:51:22.468Z,64.30
2019-04-14T01:52:16.770Z,63.40
2019-04-14T01:53:05.313Z,62.30
2019-04-14T01:53:55.270Z,61.60
2019-04-14T01:54:54.075Z,61.80
2019-04-14T01:55:52.754Z,60.20
2019-04-14T01:56:51.335Z,59.80
2019-04-14T01:57:50.319Z,59.30
2019-04-14T01:58:38.177Z,58.80
2019-04-14T01:59:19.841Z,58.40
2019-04-14T02:00:01.872Z,58.00
2019-04-14T02:00:49.468Z,58.40
2019-04-14T02:01:32.759Z,57.50
2019-04-14T02:02:14.895Z,57.20
2019-04-14T02:02:57.847Z,57.00
2019-04-14T02:03:41.138Z,56.80
2019-04-14T02:04:22.399Z,56.60
2019-04-14T02:05:03.872Z,56.80
2019-04-14T02:05:48.006Z,56.00
2019-04-14T02:06:28.851Z,56.00
2019-04-14T02:07:10.190Z,56.40
2019-04-14T02:07:53.800Z,56.90
2019-04-14T02:08:35.176Z,58.40
2019-04-14T02:09:35.735Z,60.10
2019-04-14T02:10:19.744Z,61.50
2019-04-14T02:11:00.935Z,62.80
2019-04-14T02:11:42.375Z,63.90
2019-04-14T02:12:23.533Z,64.60
2019-04-14T02:13:04.987Z,65.40
2019-04-14T02:13:46.892Z,65.90
2019-04-14T02:14:30.023Z,65.30
2019-04-14T02:15:11.309Z,64.10
2019-04-14T02:15:52.846Z,63.10
2019-04-14T02:16:40.284Z,62.30
2019-04-14T02:17:15.603Z,61.70
2019-04-14T02:17:58.947Z,61.30
2019-04-14T02:18:43.321Z,60.70
2019-04-14T02:19:26.625Z,60.90
2019-04-14T02:20:07.837Z,61.30
2019-04-14T02:20:49.084Z,61.80
2019-04-14T02:21:30.320Z,61.60
2019-04-14T02:22:14.265Z,61.70
2019-04-14T02:22:55.308Z,62.40
2019-04-14T02:23:36.630Z,61.40
2019-04-14T02:24:17.878Z,61.40
2019-04-14T02:24:59.242Z,61.40
2019-04-14T02:25:40.739Z,61.40
2019-04-14T02:26:22.043Z,61.40
2019-04-14T02:27:03.516Z,61.70
2019-04-14T02:27:47.102Z,61.50
2019-04-14T02:28:31.289Z,61.30
2019-04-14T02:29:12.163Z,61.10
2019-04-14T02:29:53.736Z,61.00
2019-04-14T02:30:41.741Z,60.90
2019-04-14T02:31:35.611Z,60.80
2019-04-14T02:32:45.363Z,60.70
2019-04-14T02:33:18.120Z,60.70
2019-04-14T02:33:50.339Z,60.80
2019-04-14T02:34:41.852Z,60.80
2019-04-14T02:36:14.730Z,61.00
2019-04-14T02:36:48.369Z,61.00
2019-04-14T02:39:42.070Z,61.40
2019-04-14T02:41:05.276Z,61.70
2019-04-14T02:42:00.350Z,62.00
2019-04-14T02:42:36.658Z,62.00
2019-04-14T02:43:14.573Z,61.90
2019-04-14T02:44:01.624Z,61.90
2019-04-14T02:44:38.051Z,64.70
2019-04-14T02:47:01.450Z,64.30
2019-04-14T02:48:31.020Z,64.10
2019-04-14T02:50:17.611Z,64.40
2019-04-14T02:51:13.767Z,64.50
2019-04-14T02:51:54.151Z,64.60
2019-04-14T02:52:35.484Z,64.80
2019-04-14T02:53:20.155Z,64.80
2019-04-14T02:54:03.164Z,64.70
2019-04-14T02:54:43.580Z,64.90
2019-04-14T02:55:19.413Z,65.00
2019-04-14T02:56:11.939Z,65.10
2019-04-14T02:56:45.279Z,65.10
2019-04-14T02:57:38.451Z,65.30
2019-04-14T02:58:24.070Z,65.40
2019-04-14T02:59:01.755Z,65.40
2019-04-14T02:59:42.983Z,65.40
2019-04-14T03:01:21.175Z,65.60
2019-04-14T03:02:44.227Z,66.30
2019-04-14T03:03:27.903Z,66.50
2019-04-14T03:04:17.021Z,66.50
2019-04-14T03:04:42.808Z,66.60
2019-04-14T03:05:27.044Z,67.00
2019-04-14T03:06:23.073Z,67.00
2019-04-14T03:06:48.122Z,67.60
2019-04-14T03:08:17.023Z,67.50
2019-04-14T03:09:19.805Z,67.60
2019-04-14T03:09:46.676Z,67.90
2019-04-14T03:10:31.991Z,68.00
2019-04-14T03:11:11.998Z,68.10
2019-04-14T03:12:31.214Z,68.40
2019-04-14T03:13:27.104Z,68.30
2019-04-14T03:14:47.910Z,68.50
2019-04-14T03:15:24.066Z,68.60
2019-04-14T03:16:17.525Z,68.70
2019-04-14T03:17:11.142Z,68.90
2019-04-14T03:18:00.680Z,69.00
2019-04-14T03:19:56.816Z,69.70
2019-04-14T03:20:59.014Z,69.30
2019-04-14T03:22:51.391Z,69.20
2019-04-14T03:23:46.348Z,69.80
2019-04-14T03:24:29.049Z,70.20
2019-04-14T03:25:26.501Z,70.40
2019-04-14T03:26:17.995Z,71.10
2019-04-14T03:27:40.383Z,71.30
2019-04-14T03:29:20.951Z,71.00
2019-04-14T03:30:33.605Z,71.20
2019-04-14T03:32:03.878Z,71.30
2019-04-14T03:33:13.536Z,71.50
2019-04-14T03:34:18.311Z,72.70
2019-04-14T03:34:43.313Z,72.90
2019-04-14T03:37:48.501Z,72.70
2019-04-14T03:38:18.227Z,73.10
2019-04-14T03:39:00.523Z,72.90
2019-04-14T03:39:43.709Z,72.50
2019-04-14T03:40:28.078Z,73.10
2019-04-14T03:41:08.638Z,73.20
2019-04-14T03:41:45.130Z,73.10
2019-04-14T03:42:37.888Z,73.50
2019-04-14T03:43:20.865Z,73.70
2019-04-14T03:43:54.595Z,73.00
2019-04-14T03:44:48.956Z,73.90
2019-04-14T03:45:38.787Z,73.30
2019-04-14T03:46:19.647Z,73.60
2019-04-14T03:46:55.424Z,74.00
2019-04-14T03:47:31.487Z,74.30
2019-04-14T03:49:45.035Z,73.30
2019-04-14T03:50:29.136Z,74.50
2019-04-14T03:52:49.717Z,75.10
2019-04-14T03:54:06.166Z,75.50
2019-04-14T03:54:44.348Z,75.40
2019-04-14T03:55:20.334Z,74.80
2019-04-14T03:56:25.244Z,75.40
2019-04-14T03:57:06.206Z,75.30
2019-04-14T03:57:48.242Z,75.40
2019-04-14T03:58:29.265Z,75.40
2019-04-14T03:59:12.722Z,75.70
2019-04-14T03:59:54.548Z,75.60
2019-04-14T04:00:37.924Z,75.40
2019-04-14T04:01:19.318Z,75.80
2019-04-14T04:02:00.895Z,75.80
2019-04-14T04:02:42.298Z,75.50
2019-04-14T04:03:26.071Z,75.60
2019-04-14T04:04:07.510Z,75.60
2019-04-14T04:04:49.398Z,75.60
2019-04-14T04:05:32.362Z,76.00
2019-04-14T04:06:13.937Z,75.80
2019-04-14T04:06:55.352Z,75.80
2019-04-14T04:07:38.986Z,76.30
2019-04-14T04:08:20.180Z,76.60
2019-04-14T04:09:01.806Z,76.10
2019-04-14T04:09:49.701Z,76.10
2019-04-14T04:10:31.396Z,76.30
2019-04-14T04:11:13.571Z,76.00
2019-04-14T04:11:54.195Z,76.30
2019-04-14T04:12:36.435Z,76.10
2019-04-14T04:13:23.745Z,76.70
2019-04-14T04:14:05.257Z,76.40
2019-04-14T04:14:46.411Z,76.40
2019-04-14T04:15:28.414Z,76.20
2019-04-14T04:16:18.067Z,76.50
2019-04-14T04:17:25.454Z,76.50
2019-04-14T04:18:25.041Z,76.40
2019-04-14T04:19:18.582Z,76.70
2019-04-14T04:20:13.750Z,76.50
2019-04-14T04:21:16.840Z,76.80
2019-04-14T04:22:13.414Z,76.50
2019-04-14T04:23:11.648Z,77.20
2019-04-14T04:24:13.432Z,76.40
2019-04-14T04:25:11.911Z,76.70
2019-04-14T04:26:01.852Z,76.90
2019-04-14T04:26:56.064Z,76.80
2019-04-14T04:27:52.557Z,77.10
2019-04-14T04:28:49.789Z,77.00
2019-04-14T04:29:46.270Z,77.70
2019-04-14T04:30:36.708Z,77.50
2019-04-14T04:31:35.409Z,77.80
2019-04-14T04:32:29.697Z,76.90
2019-04-14T04:33:19.902Z,76.90
2019-04-14T04:34:18.485Z,76.90
2019-04-14T04:35:11.397Z,76.90
2019-04-14T04:35:58.603Z,77.40
2019-04-14T04:37:01.711Z,77.00
2019-04-14T04:37:58.527Z,76.50
2019-04-14T04:38:57.447Z,77.10
2019-04-14T04:39:43.303Z,77.40
2019-04-14T04:40:31.101Z,76.50
2019-04-14T04:41:12.454Z,76.50
2019-04-14T04:41:53.762Z,77.20
2019-04-14T04:42:35.121Z,77.10
2019-04-14T04:43:18.916Z,76.70
2019-04-14T04:44:00.719Z,76.70
2019-04-14T04:44:44.200Z,77.20
2019-04-14T04:45:25.691Z,76.60
2019-04-14T04:46:06.932Z,77.10
2019-04-14T04:46:50.401Z,77.10
2019-04-14T04:47:31.642Z,76.60
2019-04-14T04:48:13.163Z,76.30
2019-04-14T04:49:03.388Z,76.30
2019-04-14T04:49:38.228Z,75.90
2019-04-14T04:50:19.749Z,76.20
2019-04-14T04:51:03.222Z,75.80
2019-04-14T04:51:44.308Z,76.10
2019-04-14T04:52:28.405Z,76.10
2019-04-14T04:53:09.297Z,76.00
2019-04-14T04:53:53.266Z,76.40
2019-04-14T04:54:36.400Z,76.00
2019-04-14T04:55:20.484Z,76.30
2019-04-14T04:56:03.606Z,75.90
2019-04-14T04:56:44.902Z,75.70
2019-04-14T04:57:26.404Z,75.90
2019-04-14T04:58:10.012Z,76.20
2019-04-14T04:58:54.902Z,76.30
2019-04-14T04:59:36.592Z,76.40
2019-04-14T05:00:17.876Z,75.80
2019-04-14T05:00:59.601Z,75.70
2019-04-14T05:01:40.759Z,78.50
2019-04-14T05:02:22.121Z,78.10
2019-04-14T05:03:04.329Z,77.80
2019-04-14T05:03:47.097Z,77.60
2019-04-14T05:04:28.649Z,77.30
2019-04-14T05:05:29.572Z,77.40
2019-04-14T05:06:32.968Z,76.90
2019-04-14T05:07:14.474Z,77.40
2019-04-14T05:07:55.453Z,77.70
2019-04-14T05:08:36.990Z,77.50
2019-04-14T05:09:23.833Z,78.10
2019-04-14T05:10:30.971Z,77.80
2019-04-14T05:11:18.696Z,77.80
2019-04-14T05:12:30.942Z,78.20
2019-04-14T05:14:22.190Z,78.30
2019-04-14T05:15:18.703Z,78.60
2019-04-14T05:16:04.194Z,80.20
2019-04-14T05:16:46.394Z,78.90
2019-04-14T05:17:27.706Z,78.60
2019-04-14T05:18:15.527Z,80.10
2019-04-14T05:19:01.028Z,79.10
2019-04-14T05:19:39.417Z,79.00
2019-04-14T05:20:22.486Z,80.10
2019-04-14T05:21:03.969Z,78.50
2019-04-14T05:21:45.226Z,80.20
2019-04-14T05:22:26.998Z,78.60
2019-04-14T05:23:10.244Z,79.30
2019-04-14T05:23:53.766Z,78.60
2019-04-14T05:24:35.528Z,79.30
2019-04-14T05:25:19.099Z,79.00
2019-04-14T05:26:00.572Z,79.40
2019-04-14T05:26:41.749Z,78.50
2019-04-14T05:27:23.263Z,78.60
2019-04-14T05:28:04.810Z,78.60
2019-04-14T05:28:48.457Z,79.30
2019-04-14T05:29:29.761Z,79.30
2019-04-14T05:30:11.166Z,78.90
2019-04-14T05:30:57.000Z,78.90
2019-04-14T05:31:40.348Z,79.10
2019-04-14T05:32:21.717Z,79.20
2019-04-14T05:33:03.587Z,78.60
2019-04-14T05:33:49.020Z,78.40
2019-04-14T05:34:30.673Z,79.60
2019-04-14T05:35:12.133Z,78.60
2019-04-14T05:35:53.210Z,79.10
2019-04-14T05:36:41.058Z,78.80
2019-04-14T05:37:22.523Z,78.50
2019-04-14T05:38:08.322Z,78.20
2019-04-14T05:38:51.691Z,77.70
2019-04-14T05:39:35.581Z,78.00
2019-04-14T05:40:16.806Z,78.30
2019-04-14T05:40:58.645Z,79.10
2019-04-14T05:41:40.870Z,79.40
2019-04-14T05:42:25.640Z,78.20
2019-04-14T05:43:06.721Z,78.20
2019-04-14T05:43:54.961Z,78.90
2019-04-14T05:44:32.433Z,79.10
2019-04-14T05:45:13.896Z,78.30
2019-04-14T05:45:54.955Z,78.00
2019-04-14T05:46:35.976Z,78.50
2019-04-14T05:47:20.141Z,77.80
2019-04-14T05:48:03.268Z,78.90
2019-04-14T05:48:47.025Z,79.10
2019-04-14T05:49:36.507Z,78.30
2019-04-14T05:50:11.546Z,78.00
2019-04-14T05:50:55.428Z,77.50
2019-04-14T05:51:37.321Z,77.80
2019-04-14T05:52:18.516Z,77.60
2019-04-14T05:53:02.161Z,77.80
2019-04-14T05:53:50.152Z,77.40
2019-04-14T05:54:34.024Z,77.30
2019-04-14T05:55:20.407Z,77.60
2019-04-14T05:56:02.018Z,77.10
2019-04-14T05:56:42.981Z,77.20
2019-04-14T05:57:24.283Z,77.00
2019-04-14T05:58:05.721Z,77.50
2019-04-14T05:58:49.238Z,77.10
2019-04-14T05:59:40.449Z,77.20
2019-04-14T06:00:27.706Z,77.70
2019-04-14T06:01:14.595Z,79.40
2019-04-14T06:01:59.354Z,78.20
2019-04-14T06:02:50.545Z,77.80
2019-04-14T06:03:34.231Z,77.70
2019-04-14T06:04:20.035Z,79.10
2019-04-14T06:05:06.250Z,79.70
2019-04-14T06:05:52.836Z,78.10
2019-04-14T06:06:37.915Z,77.60
2019-04-14T06:07:24.630Z,78.10
2019-04-14T06:08:08.599Z,77.80
2019-04-14T06:08:50.705Z,77.70
2019-04-14T06:09:33.952Z,77.80
2019-04-14T06:10:21.572Z,77.70
2019-04-14T06:11:05.351Z,78.10
2019-04-14T06:11:49.188Z,78.90
2019-04-14T06:12:36.605Z,78.60
2019-04-14T06:13:20.595Z,78.20
2019-04-14T06:14:02.617Z,78.10
2019-04-14T06:14:44.606Z,78.10
2019-04-14T06:15:26.159Z,78.10
2019-04-14T06:16:07.340Z,79.50
2019-04-14T06:16:54.804Z,79.00
2019-04-14T06:17:37.591Z,78.90
2019-04-14T06:18:21.143Z,79.10
2019-04-14T06:19:02.058Z,79.40
2019-04-14T06:19:42.678Z,79.10
2019-04-14T06:20:25.055Z,78.70
2019-04-14T06:21:06.965Z,78.80
2019-04-14T06:21:48.001Z,78.80
2019-04-14T06:22:29.114Z,79.50
2019-04-14T06:23:09.772Z,79.60
2019-04-14T06:23:50.386Z,78.60
2019-04-14T06:24:32.787Z,78.70
2019-04-14T06:25:13.522Z,78.80
2019-04-14T06:25:54.229Z,79.30
2019-04-14T06:26:35.924Z,79.40
2019-04-14T06:27:17.813Z,79.40
2019-04-14T06:28:00.788Z,79.10
2019-04-14T06:28:43.303Z,78.90
2019-04-14T06:29:24.201Z,78.60
2019-04-14T06:30:17.902Z,79.10
2019-04-14T06:31:22.069Z,80.70
2019-04-14T06:32:22.462Z,80.30
2019-04-14T06:33:06.271Z,79.40
2019-04-14T06:34:04.523Z,79.50
2019-04-14T06:34:53.834Z,79.60
2019-04-14T06:35:57.975Z,79.80
2019-04-14T06:36:50.983Z,79.80
2019-04-14T06:37:38.007Z,80.10
2019-04-14T06:38:26.115Z,80.10
2019-04-14T06:39:14.439Z,79.40
2019-04-14T06:39:56.921Z,79.70
2019-04-14T06:40:46.277Z,79.50
2019-04-14T06:41:28.035Z,79.00
2019-04-14T06:42:08.675Z,79.60
2019-04-14T06:42:50.665Z,79.40
2019-04-14T06:43:35.047Z,79.90
2019-04-14T06:44:17.448Z,79.60
2019-04-14T06:45:00.115Z,79.50
2019-04-14T06:45:41.231Z,79.50
2019-04-14T06:46:21.969Z,79.70
2019-04-14T06:47:02.891Z,79.90
2019-04-14T06:47:43.840Z,79.60
2019-04-14T06:48:24.499Z,79.80
2019-04-14T06:49:07.299Z,79.90
2019-04-14T06:49:49.146Z,79.20
2019-04-14T06:50:31.344Z,79.20
2019-04-14T06:51:14.081Z,79.30
2019-04-14T06:51:55.024Z,79.70
2019-04-14T06:52:35.927Z,79.90
2019-04-14T06:53:16.630Z,80.10
2019-04-14T06:53:59.645Z,80.00
2019-04-14T06:54:40.722Z,79.40
2019-04-14T06:55:21.862Z,79.70
2019-04-14T06:56:03.074Z,80.00
2019-04-14T06:56:45.598Z,80.10
2019-04-14T06:57:26.290Z,80.30
2019-04-14T06:58:07.005Z,80.10
2019-04-14T06:58:47.622Z,81.20
2019-04-14T06:59:28.206Z,80.20
2019-04-14T07:00:10.134Z,79.90
2019-04-14T07:00:50.926Z,79.70
2019-04-14T07:01:32.002Z,79.60
2019-04-14T07:02:13.144Z,80.10
2019-04-14T07:02:55.773Z,80.50
2019-04-14T07:03:38.178Z,79.40
2019-04-14T07:04:18.799Z,79.60
2019-04-14T07:04:59.373Z,79.50
2019-04-14T07:05:40.381Z,79.00
2019-04-14T07:06:21.097Z,79.20
2019-04-14T07:07:03.742Z,79.60
2019-04-14T07:07:56.564Z,79.50
2019-04-14T07:08:29.974Z,79.00
2019-04-14T07:09:11.058Z,79.80
2019-04-14T07:09:52.985Z,80.00
2019-04-14T07:10:33.942Z,80.20
2019-04-14T07:11:16.247Z,80.00
2019-04-14T07:11:56.957Z,79.60
2019-04-14T07:12:42.824Z,79.80
2019-04-14T07:13:23.609Z,79.80
2019-04-14T07:14:04.394Z,80.10
2019-04-14T07:14:47.469Z,80.20
2019-04-14T07:15:29.518Z,79.60
2019-04-14T07:16:10.850Z,79.90
2019-04-14T07:16:51.656Z,79.60
2019-04-14T07:17:32.781Z,79.60
2019-04-14T07:18:13.387Z,79.80
2019-04-14T07:18:54.276Z,80.00
2019-04-14T07:19:35.181Z,80.30
2019-04-14T07:20:17.225Z,80.30
2019-04-14T07:20:59.516Z,79.70
2019-04-14T07:21:40.406Z,80.30
2019-04-14T07:22:21.427Z,79.60
2019-04-14T07:23:02.200Z,79.70
2019-04-14T07:23:47.157Z,79.60
2019-04-14T07:24:26.922Z,79.90
2019-04-14T07:25:07.519Z,79.60
2019-04-14T07:25:48.178Z,80.00
2019-04-14T07:26:28.804Z,79.80
2019-04-14T07:27:09.561Z,79.90
2019-04-14T07:27:50.211Z,79.80
2019-04-14T07:28:34.516Z,79.60
2019-04-14T07:29:15.441Z,79.60
2019-04-14T07:30:03.961Z,79.40
2019-04-14T07:31:00.754Z,79.40
2019-04-14T07:31:59.479Z,79.40
2019-04-14T07:33:00.613Z,79.40
2019-04-14T07:34:02.126Z,79.40
2019-04-14T07:34:55.981Z,79.50
2019-04-14T07:35:52.933Z,79.70
2019-04-14T07:36:49.978Z,79.20
2019-04-14T07:37:55.709Z,79.90
2019-04-14T07:38:43.255Z,79.60
2019-04-14T07:39:36.876Z,79.30
2019-04-14T07:40:41.027Z,79.20
2019-04-14T07:41:33.351Z,80.60
2019-04-14T07:42:33.155Z,80.80
2019-04-14T07:43:31.588Z,79.50
2019-04-14T07:44:33.736Z,79.70
2019-04-14T07:45:25.977Z,80.40
2019-04-14T07:46:20.002Z,79.90
2019-04-14T07:47:05.471Z,79.20
2019-04-14T07:47:51.546Z,78.80
2019-04-14T07:48:42.137Z,79.50
2019-04-14T07:49:44.500Z,79.90
2019-04-14T07:50:40.930Z,79.70
2019-04-14T07:51:40.535Z,79.70
2019-04-14T07:52:34.144Z,79.40
2019-04-14T07:53:49.764Z,78.90
2019-04-14T07:54:37.085Z,79.30
2019-04-14T07:55:37.388Z,79.90
2019-04-14T07:56:31.709Z,79.20
2019-04-14T07:57:21.040Z,79.20
2019-04-14T07:58:18.563Z,79.30
2019-04-14T07:59:20.721Z,79.40
2019-04-14T08:00:09.417Z,78.70
2019-04-14T08:01:05.918Z,78.80
2019-04-14T08:02:02.088Z,79.60
2019-04-14T08:02:56.370Z,79.90
2019-04-14T08:03:53.803Z,79.80
2019-04-14T08:04:37.207Z,79.30
2019-04-14T08:05:32.859Z,79.10
2019-04-14T08:06:24.612Z,79.20
2019-04-14T08:07:06.426Z,79.10
2019-04-14T08:07:54.860Z,79.20
2019-04-14T08:08:38.840Z,79.20
2019-04-14T08:09:21.494Z,79.50
2019-04-14T08:10:03.611Z,79.00
2019-04-14T08:10:44.846Z,79.10
2019-04-14T08:11:25.668Z,79.20
2019-04-14T08:12:06.971Z,79.40
2019-04-14T08:12:50.736Z,79.70
2019-04-14T08:13:32.680Z,79.10
2019-04-14T08:14:13.504Z,79.50
2019-04-14T08:14:55.672Z,79.70
2019-04-14T08:15:36.636Z,79.70
2019-04-14T08:16:19.552Z,79.70
2019-04-14T08:17:01.664Z,79.50
2019-04-14T08:17:44.914Z,79.60
2019-04-14T08:18:27.611Z,79.80
2019-04-14T08:19:09.641Z,80.40
2019-04-14T08:19:51.872Z,80.30
2019-04-14T08:20:35.646Z,80.40
2019-04-14T08:21:19.351Z,80.10
2019-04-14T08:22:00.207Z,79.60
2019-04-14T08:22:41.387Z,79.30
2019-04-14T08:23:22.796Z,79.20
2019-04-14T08:24:03.476Z,79.60
2019-04-14T08:24:47.745Z,79.70
2019-04-14T08:25:30.326Z,79.30
2019-04-14T08:26:12.716Z,79.70
2019-04-14T08:26:56.279Z,79.70
2019-04-14T08:27:37.345Z,79.60
2019-04-14T08:28:21.361Z,79.00
2019-04-14T08:29:01.707Z,79.20
2019-04-14T08:29:42.539Z,79.30
2019-04-14T08:30:28.054Z,79.60
2019-04-14T08:31:08.987Z,79.90
2019-04-14T08:31:53.558Z,79.70
2019-04-14T08:32:34.477Z,79.70
2019-04-14T08:33:15.393Z,79.30
2019-04-14T08:33:59.322Z,78.80
2019-04-14T08:34:40.219Z,78.80
2019-04-14T08:35:22.289Z,79.20
2019-04-14T08:36:04.337Z,79.50
2019-04-14T08:36:45.064Z,79.60
2019-04-14T08:37:27.958Z,79.40
2019-04-14T08:38:10.592Z,79.30
2019-04-14T08:38:53.132Z,79.40
2019-04-14T08:39:33.698Z,79.30
2019-04-14T08:40:15.512Z,79.90
2019-04-14T08:40:58.298Z,79.30
2019-04-14T08:41:52.575Z,79.30
2019-04-14T08:43:03.385Z,79.10
2019-04-14T08:44:00.599Z,78.50
2019-04-14T08:44:48.193Z,78.70
2019-04-14T08:45:39.024Z,78.50
2019-04-14T08:46:31.300Z,78.50
2019-04-14T08:47:22.459Z,79.70
2019-04-14T08:48:20.360Z,79.20
2019-04-14T08:49:06.908Z,79.20
2019-04-14T08:50:06.708Z,78.60
2019-04-14T08:51:11.415Z,77.80
2019-04-14T08:52:12.151Z,78.80
2019-04-14T08:53:02.242Z,79.20
2019-04-14T08:53:49.739Z,79.10
2019-04-14T08:54:57.247Z,78.90
2019-04-14T08:56:07.683Z,79.30
2019-04-14T08:57:07.566Z,79.40
2019-04-14T08:58:18.049Z,79.30
2019-04-14T08:59:16.230Z,78.70
2019-04-14T09:00:22.229Z,78.80
2019-04-14T09:01:20.802Z,79.00
2019-04-14T09:02:17.303Z,79.70
2019-04-14T09:03:21.553Z,79.10
2019-04-14T09:04:25.935Z,78.80
2019-04-14T09:05:24.107Z,79.50
2019-04-14T09:06:23.916Z,79.50
2019-04-14T09:07:15.946Z,79.20
2019-04-14T09:08:15.495Z,78.50
2019-04-14T09:09:19.846Z,79.40
2019-04-14T09:10:21.273Z,79.20
2019-04-14T09:11:07.885Z,78.60
2019-04-14T09:11:55.494Z,79.30
2019-04-14T09:12:39.937Z,78.90
2019-04-14T09:13:21.248Z,78.80
2019-04-14T09:14:03.520Z,78.90
2019-04-14T09:14:56.178Z,78.90
2019-04-14T09:15:26.487Z,78.90
2019-04-14T09:16:08.633Z,78.60
2019-04-14T09:16:49.548Z,78.30
2019-04-14T09:17:34.612Z,78.40
2019-04-14T09:18:18.256Z,78.10
2019-04-14T09:19:07.400Z,78.30
2019-04-14T09:19:41.316Z,78.00
2019-04-14T09:20:22.359Z,78.00
2019-04-14T09:21:04.288Z,78.20
2019-04-14T09:21:46.333Z,78.20
2019-04-14T09:22:28.451Z,78.10
2019-04-14T09:23:09.585Z,78.40
2019-04-14T09:23:51.447Z,78.10
2019-04-14T09:24:33.015Z,77.90
2019-04-14T09:25:14.095Z,78.20
2019-04-14T09:25:55.822Z,78.20
2019-04-14T09:26:45.223Z,78.10
2019-04-14T09:27:28.446Z,78.10
2019-04-14T09:28:22.963Z,78.00
2019-04-14T09:29:19.450Z,78.00
2019-04-14T09:30:13.594Z,78.70
2019-04-14T09:31:01.984Z,78.40
2019-04-14T09:31:58.550Z,78.10
2019-04-14T09:32:55.602Z,78.00
2019-04-14T09:33:39.174Z,78.30
2019-04-14T09:34:21.699Z,78.60
2019-04-14T09:35:08.698Z,79.30
2019-04-14T09:36:00.039Z,79.20
2019-04-14T09:36:48.957Z,78.90
2019-04-14T09:37:40.959Z,79.70
2019-04-14T09:38:27.503Z,78.30
2019-04-14T09:39:24.863Z,78.70
2019-04-14T09:40:17.577Z,79.00
2019-04-14T09:41:01.176Z,79.00
2019-04-14T09:41:44.135Z,79.20
2019-04-14T09:42:40.427Z,79.40
2019-04-14T09:43:31.228Z,78.90
2019-04-14T09:44:15.225Z,78.90
2019-04-14T09:45:09.321Z,79.10
2019-04-14T09:45:58.064Z,79.20
2019-04-14T09:46:55.504Z,79.40
2019-04-14T09:47:54.628Z,79.60
2019-04-14T09:48:42.985Z,79.90
2019-04-14T09:49:27.273Z,79.70
2019-04-14T09:50:08.744Z,79.40
2019-04-14T09:51:04.291Z,79.20
2019-04-14T09:51:37.319Z,79.20
2019-04-14T09:52:18.690Z,79.40
2019-04-14T09:53:05.557Z,79.30
2019-04-14T09:53:55.302Z,79.60
2019-04-14T09:54:40.264Z,79.40
2019-04-14T09:55:23.356Z,79.40
2019-04-14T09:56:06.786Z,79.60
2019-04-14T09:56:49.402Z,79.50
2019-04-14T09:57:33.465Z,79.50
2019-04-14T09:58:14.418Z,79.40
2019-04-14T09:58:55.410Z,79.50
2019-04-14T09:59:38.859Z,79.60
2019-04-14T10:00:21.125Z,79.40
2019-04-14T10:01:03.824Z,79.40
2019-04-14T10:01:46.286Z,79.40
2019-04-14T10:02:27.277Z,79.40
2019-04-14T10:03:09.304Z,79.50
2019-04-14T10:03:52.107Z,79.40
2019-04-14T10:04:34.758Z,79.40
2019-04-14T10:05:18.383Z,79.60
2019-04-14T10:06:00.627Z,79.60
2019-04-14T10:06:41.460Z,79.70
2019-04-14T10:07:24.045Z,79.70
2019-04-14T10:08:05.016Z,79.80
2019-04-14T10:08:47.162Z,79.90
2019-04-14T10:09:28.382Z,80.10
2019-04-14T10:10:09.653Z,80.10
2019-04-14T10:10:51.496Z,80.10